createdAt,value
2022-10-02T00:01:47.358Z,3.78
2022-10-02T00:04:22.321Z,6.68
2022-10-02T00:06:51.095Z,4.55
2022-10-02T00:09:33.751Z,6.57
2022-10-02T00:12:02.009Z,6.22
2022-10-02T00:14:33.739Z,8.02
2022-10-02T00:17:01.375Z,4.95
2022-10-02T00:19:28.146Z,4.68
2022-10-02T00:22:32.177Z,7.13
2022-10-02T00:25:07.097Z,6.18
2022-10-02T00:28:01.113Z,3.05
2022-10-02T00:30:33.760Z,9.13
2022-10-02T00:33:17.955Z,4.50
2022-10-02T00:36:12.006Z,8.63
2022-10-02T00:39:12.295Z,6.20
2022-10-02T00:42:10.065Z,2.92
2022-10-02T00:44:48.694Z,7.97
2022-10-02T00:47:39.259Z,8.90
2022-10-02T00:50:08.374Z,8.00
2022-10-02T00:52:53.517Z,7.72
2022-10-02T00:55:30.270Z,5.40
2022-10-02T00:57:56.631Z,5.32
2022-10-02T01:00:23.383Z,6.45
2022-10-02T01:03:10.348Z,8.35
2022-10-02T01:05:37.782Z,5.20
2022-10-02T01:08:05.249Z,4.40
2022-10-02T01:10:32.236Z,7.85
2022-10-02T01:12:59.205Z,5.47
2022-10-02T01:15:44.433Z,6.88
2022-10-02T01:18:13.899Z,7.22
2022-10-02T01:20:47.679Z,7.15
2022-10-02T01:23:50.618Z,9.23
2022-10-02T01:26:18.032Z,7.75
2022-10-02T01:28:44.556Z,9.93
2022-10-02T01:31:14.612Z,8.68
2022-10-02T01:33:43.389Z,7.85
2022-10-02T01:36:11.899Z,10.88
2022-10-02T01:38:40.840Z,4.45
2022-10-02T01:41:11.407Z,20.58
2022-10-02T01:43:41.803Z,9.40
2022-10-02T01:46:32.839Z,7.05
2022-10-02T01:49:21.253Z,8.65
2022-10-02T01:51:53.686Z,6.45
2022-10-02T01:54:29.211Z,7.57
2022-10-02T01:57:10.467Z,10.05
2022-10-02T01:59:50.668Z,5.40
2022-10-02T02:02:41.414Z,7.13
2022-10-02T02:05:16.248Z,7.00
2022-10-02T02:08:06.248Z,7.22
2022-10-02T02:11:12.029Z,9.32
2022-10-02T02:13:45.620Z,10.82
2022-10-02T02:16:31.803Z,6.10
2022-10-02T02:19:07.461Z,5.20
2022-10-02T02:21:40.166Z,6.05
2022-10-02T02:24:14.675Z,9.10
2022-10-02T02:26:45.253Z,13.50
2022-10-02T02:29:15.225Z,11.20
2022-10-02T02:31:49.138Z,9.25
2022-10-02T02:34:22.102Z,7.95
2022-10-02T02:36:55.554Z,10.52
2022-10-02T02:39:39.368Z,5.43
2022-10-02T02:42:09.769Z,6.45
2022-10-02T02:44:53.198Z,6.50
2022-10-02T02:47:26.440Z,6.85
2022-10-02T02:49:55.537Z,6.93
2022-10-02T02:52:28.342Z,18.17
2022-10-02T02:55:28.937Z,6.10
2022-10-02T02:58:16.376Z,7.10
2022-10-02T03:00:42.906Z,6.28
2022-10-02T03:03:09.355Z,9.82
2022-10-02T03:05:42.262Z,9.85
2022-10-02T03:08:18.490Z,7.45
2022-10-02T03:10:55.347Z,9.55
2022-10-02T03:13:45.404Z,9.02
2022-10-02T03:16:20.943Z,6.93
2022-10-02T03:19:07.579Z,9.10
2022-10-02T03:22:03.102Z,11.20
2022-10-02T03:24:44.847Z,7.57
2022-10-02T03:27:35.832Z,8.38
2022-10-02T03:30:08.298Z,14.60
2022-10-02T03:32:36.442Z,8.95
2022-10-02T03:35:06.040Z,9.07
2022-10-02T03:37:33.011Z,6.40
2022-10-02T03:40:01.435Z,5.65
2022-10-02T03:42:31.658Z,8.05
2022-10-02T03:44:58.090Z,8.43
2022-10-02T03:47:24.556Z,11.00
2022-10-02T03:49:51.017Z,11.45
2022-10-02T03:52:21.099Z,13.48
2022-10-02T03:54:51.010Z,4.70
2022-10-02T03:57:23.384Z,8.25
2022-10-02T04:00:09.216Z,6.55
2022-10-02T04:02:52.398Z,7.22
2022-10-02T04:05:29.012Z,6.88
2022-10-02T04:08:00.052Z,14.48
2022-10-02T04:10:39.329Z,8.07
2022-10-02T04:13:32.126Z,7.72
2022-10-02T04:16:03.567Z,5.53
2022-10-02T04:18:37.743Z,7.20
2022-10-02T04:23:52.687Z,7.25
2022-10-02T04:26:29.555Z,10.68
2022-10-02T04:29:05.206Z,7.47
2022-10-02T04:31:31.707Z,6.93
2022-10-02T04:34:03.068Z,8.88
2022-10-02T04:36:39.975Z,8.13
2022-10-02T04:39:59.595Z,7.82
2022-10-02T04:43:01.133Z,8.82
2022-10-02T04:45:45.652Z,9.07
2022-10-02T04:48:47.644Z,10.80
2022-10-02T04:51:35.095Z,10.07
2022-10-02T04:54:35.730Z,7.82
2022-10-02T04:57:39.789Z,9.60
2022-10-02T05:00:12.834Z,8.77
2022-10-02T05:02:39.283Z,9.00
2022-10-02T05:05:11.748Z,5.55
2022-10-02T05:07:47.303Z,8.60
2022-10-02T05:10:52.617Z,6.15
2022-10-02T05:13:53.713Z,5.70
2022-10-02T05:16:45.195Z,9.20
2022-10-02T05:19:49.678Z,13.85
2022-10-02T05:22:22.038Z,9.80
2022-10-02T05:25:12.592Z,12.15
2022-10-02T05:28:06.370Z,11.85
2022-10-02T05:30:46.934Z,14.02
2022-10-02T05:33:32.197Z,7.82
2022-10-02T05:36:16.704Z,6.68
2022-10-02T05:41:25.477Z,11.88
2022-10-02T05:44:04.342Z,6.68
2022-10-02T05:46:39.023Z,10.30
2022-10-02T05:49:20.430Z,11.80
2022-10-02T05:51:59.292Z,7.07
2022-10-02T05:55:22.105Z,17.30
2022-10-02T05:57:57.368Z,7.80
2022-10-02T06:00:55.102Z,5.18
2022-10-02T06:03:43.893Z,9.52
2022-10-02T06:06:14.835Z,7.90
2022-10-02T06:08:49.727Z,10.48
2022-10-02T06:11:21.349Z,10.15
2022-10-02T06:13:54.252Z,10.60
2022-10-02T06:16:23.368Z,9.93
2022-10-02T06:18:56.204Z,10.13
2022-10-02T06:21:32.800Z,8.70
2022-10-02T06:24:07.390Z,7.85
2022-10-02T06:26:57.422Z,8.35
2022-10-02T06:29:40.171Z,8.32
2022-10-02T06:32:40.430Z,9.80
2022-10-02T06:35:12.450Z,14.60
2022-10-02T06:38:19.663Z,5.25
2022-10-02T06:40:50.731Z,6.03
2022-10-02T06:43:19.977Z,8.65
2022-10-02T06:46:17.885Z,4.20
2022-10-02T06:48:58.588Z,9.32
2022-10-02T06:51:38.093Z,4.25
2022-10-02T06:54:29.393Z,9.45
2022-10-02T06:57:17.088Z,7.03
2022-10-02T07:00:11.948Z,6.82
2022-10-02T07:05:50.576Z,9.98
2022-10-02T07:08:42.000Z,5.80
2022-10-02T07:11:28.118Z,5.65
2022-10-02T07:14:22.229Z,6.72
2022-10-02T07:17:05.179Z,5.47
2022-10-02T07:19:53.428Z,5.18
2022-10-02T07:22:51.915Z,6.15
2022-10-02T07:25:39.912Z,5.45
2022-10-02T07:28:17.089Z,6.88
2022-10-02T07:31:21.516Z,7.90
2022-10-02T07:33:57.189Z,6.32
2022-10-02T07:36:39.101Z,6.72
2022-10-02T07:39:36.610Z,5.07
2022-10-02T07:42:08.786Z,9.50
2022-10-02T07:45:29.441Z,9.32
2022-10-02T07:48:15.641Z,5.65
2022-10-02T07:51:35.150Z,4.70
2022-10-02T07:54:28.794Z,4.07
2022-10-02T07:57:05.096Z,5.07
2022-10-02T07:59:36.898Z,3.70
2022-10-02T08:02:14.111Z,3.67
2022-10-02T08:04:41.289Z,4.32
2022-10-02T08:07:07.758Z,5.95
2022-10-02T08:09:45.752Z,25.85
2022-10-02T08:12:21.212Z,6.30
2022-10-02T08:14:52.571Z,11.65
2022-10-02T08:17:30.360Z,5.18
2022-10-02T08:20:29.494Z,9.73
2022-10-02T08:23:13.059Z,7.68
2022-10-02T08:25:46.226Z,4.50
2022-10-02T08:28:24.097Z,4.57
2022-10-02T08:30:50.868Z,8.35
2022-10-02T08:33:23.572Z,6.25
2022-10-02T08:36:28.607Z,4.80
2022-10-02T08:39:09.890Z,11.68
2022-10-02T08:42:23.315Z,6.72
2022-10-02T08:45:17.561Z,9.57
2022-10-02T08:48:11.185Z,5.45
2022-10-02T08:51:09.163Z,6.05
2022-10-02T08:53:51.575Z,6.03
2022-10-02T08:56:30.055Z,11.18
2022-10-02T08:58:59.474Z,4.25
2022-10-02T09:01:33.608Z,5.30
2022-10-02T09:06:42.980Z,5.18
2022-10-02T09:09:24.675Z,7.40
2022-10-02T09:12:03.252Z,4.18
2022-10-02T09:15:13.902Z,17.02
2022-10-02T09:17:47.051Z,3.08
2022-10-02T09:20:31.528Z,6.85
2022-10-02T09:26:03.659Z,4.13
2022-10-02T09:28:48.413Z,8.82
2022-10-02T09:31:45.987Z,8.50
2022-10-02T09:34:39.600Z,5.80
2022-10-02T09:37:26.322Z,3.42
2022-10-02T09:40:29.410Z,8.27
2022-10-02T09:43:05.713Z,4.05
2022-10-02T09:46:00.046Z,5.00
2022-10-02T09:48:35.503Z,1.77
2022-10-02T09:51:16.271Z,3.97
2022-10-02T09:54:21.392Z,4.93
2022-10-02T09:59:40.541Z,4.55
2022-10-02T10:02:23.328Z,2.60
2022-10-02T10:05:08.879Z,4.28
2022-10-02T10:07:35.329Z,8.23
2022-10-02T10:10:31.012Z,2.28
2022-10-02T10:13:09.611Z,4.20
2022-10-02T10:15:40.540Z,4.07
2022-10-02T10:18:47.998Z,2.88
2022-10-02T10:21:20.234Z,2.10
2022-10-02T10:23:51.129Z,4.60
2022-10-02T10:27:08.240Z,5.38
2022-10-02T10:30:03.909Z,3.10
2022-10-02T10:32:52.085Z,3.85
2022-10-02T10:35:24.833Z,4.57
2022-10-02T10:38:12.670Z,2.85
2022-10-02T10:40:54.923Z,8.95
2022-10-02T10:43:51.416Z,2.40
2022-10-02T10:46:42.621Z,4.57
2022-10-02T10:49:30.361Z,5.78
2022-10-02T10:52:21.627Z,6.35
2022-10-02T10:55:04.856Z,3.83
2022-10-02T10:57:42.641Z,4.05
2022-10-02T11:00:19.067Z,5.82
2022-10-02T11:03:07.090Z,2.20
2022-10-02T11:06:13.593Z,2.47
2022-10-02T11:08:55.434Z,2.58
2022-10-02T11:11:28.044Z,2.05
2022-10-02T11:14:15.456Z,2.60
2022-10-02T11:17:22.433Z,1.60
2022-10-02T11:20:07.130Z,1.23
2022-10-02T11:22:54.773Z,2.17
2022-10-02T11:25:30.291Z,3.95
2022-10-02T11:28:23.166Z,1.50
2022-10-02T11:31:02.845Z,5.57
2022-10-02T11:33:38.254Z,2.55
2022-10-02T11:36:20.125Z,1.05
2022-10-02T11:39:13.944Z,1.52
2022-10-02T11:41:49.597Z,6.27
2022-10-02T11:44:57.346Z,4.90
2022-10-02T11:48:09.067Z,2.88
2022-10-02T11:50:35.468Z,2.30
2022-10-02T11:53:11.220Z,1.90
2022-10-02T11:56:14.369Z,1.35
2022-10-02T11:59:07.122Z,1.25
2022-10-02T12:01:45.677Z,2.13
2022-10-02T12:04:40.773Z,2.78
2022-10-02T12:07:19.689Z,4.60
2022-10-02T12:10:19.089Z,3.75
2022-10-02T12:13:04.476Z,3.55
2022-10-02T12:15:59.783Z,3.75
2022-10-02T12:18:54.824Z,5.10
2022-10-02T12:22:03.772Z,8.65
2022-10-02T12:25:10.323Z,4.32
2022-10-02T12:27:48.787Z,3.38
2022-10-02T12:30:23.387Z,5.30
2022-10-02T12:33:27.281Z,7.13
2022-10-02T12:36:08.504Z,3.25
2022-10-02T12:39:12.056Z,2.67
2022-10-02T12:41:57.192Z,2.60
2022-10-02T12:44:44.869Z,3.88
2022-10-02T12:47:42.362Z,3.50
2022-10-02T12:50:39.696Z,2.95
2022-10-02T12:53:16.252Z,2.72
2022-10-02T12:55:54.555Z,5.55
2022-10-02T12:58:35.312Z,3.30
2022-10-02T13:01:52.935Z,7.10
2022-10-02T13:04:19.443Z,2.97
2022-10-02T13:06:57.771Z,3.58
2022-10-02T13:09:36.277Z,3.75
2022-10-02T13:12:44.289Z,3.38
2022-10-02T13:15:34.193Z,3.42
2022-10-02T13:18:13.467Z,3.05
2022-10-02T13:21:06.156Z,3.28
2022-10-02T13:24:19.232Z,4.20
2022-10-02T13:26:54.316Z,4.40
2022-10-02T13:29:59.178Z,6.47
2022-10-02T13:32:31.643Z,2.63
2022-10-02T13:35:19.828Z,3.35
2022-10-02T13:37:58.283Z,5.20
2022-10-02T13:40:37.290Z,2.28
2022-10-02T13:43:26.310Z,11.23
2022-10-02T13:46:20.209Z,7.18
2022-10-02T13:49:00.130Z,2.03
2022-10-02T13:51:52.749Z,2.05
2022-10-02T13:54:29.475Z,5.13
2022-10-02T13:57:20.426Z,2.55
2022-10-02T13:59:58.935Z,3.83
2022-10-02T14:03:08.405Z,3.22
2022-10-02T14:05:43.942Z,6.05
2022-10-02T14:08:37.040Z,2.75
2022-10-02T14:11:26.174Z,4.72
2022-10-02T14:14:08.901Z,2.22
2022-10-02T14:16:45.935Z,2.33
2022-10-02T14:19:24.443Z,8.15
2022-10-02T14:22:34.915Z,5.70
2022-10-02T14:25:22.772Z,6.20
2022-10-02T14:28:08.245Z,3.28
2022-10-02T14:30:57.046Z,3.30
2022-10-02T14:33:52.228Z,1.58
2022-10-02T14:36:33.560Z,2.88
2022-10-02T14:39:30.905Z,1.92
2022-10-02T14:42:09.998Z,1.65
2022-10-02T14:44:56.870Z,1.83
2022-10-02T14:47:26.420Z,6.55
2022-10-02T14:50:14.611Z,1.85
2022-10-02T14:53:19.362Z,4.13
2022-10-02T14:56:10.267Z,2.92
2022-10-02T14:58:55.404Z,2.05
2022-10-02T15:01:23.705Z,2.20
2022-10-02T15:04:12.540Z,5.53
2022-10-02T15:07:13.701Z,3.92
2022-10-02T15:09:55.153Z,6.30
2022-10-02T15:12:25.934Z,6.78
2022-10-02T15:15:09.070Z,3.25
2022-10-02T15:17:55.150Z,6.20
2022-10-02T15:20:40.555Z,4.45
2022-10-02T15:23:38.952Z,3.33
2022-10-02T15:26:16.404Z,6.50
2022-10-02T15:29:04.126Z,5.70
2022-10-02T15:31:44.187Z,4.35
2022-10-02T15:34:24.830Z,8.60
2022-10-02T15:37:13.456Z,4.70
2022-10-02T15:39:42.792Z,5.53
2022-10-02T15:42:11.088Z,3.53
2022-10-02T15:45:03.531Z,3.20
2022-10-02T15:47:48.873Z,6.38
2022-10-02T15:50:30.622Z,3.08
2022-10-02T15:53:18.294Z,4.00
2022-10-02T15:55:52.591Z,5.47
2022-10-02T15:58:56.338Z,5.60
2022-10-02T16:01:31.794Z,5.25
2022-10-02T16:04:21.843Z,2.83
2022-10-02T16:07:13.101Z,4.70
2022-10-02T16:10:07.872Z,5.95
2022-10-02T16:15:23.384Z,3.92
2022-10-02T16:17:59.586Z,7.85
2022-10-02T16:20:40.078Z,7.93
2022-10-02T16:23:11.554Z,11.77
2022-10-02T16:25:40.751Z,8.73
2022-10-02T16:28:13.211Z,6.78
2022-10-02T16:30:51.666Z,5.97
2022-10-02T16:33:44.277Z,8.63
2022-10-02T16:36:29.929Z,6.68
2022-10-02T16:39:35.012Z,4.68
2022-10-02T16:42:10.955Z,3.10
2022-10-02T16:44:58.645Z,3.15
2022-10-02T16:47:49.918Z,4.30
2022-10-02T16:50:24.341Z,2.88
2022-10-02T16:53:05.094Z,3.50
2022-10-02T16:55:39.960Z,3.72
2022-10-02T16:58:24.601Z,4.32
2022-10-02T17:01:05.191Z,4.05
2022-10-02T17:03:36.688Z,3.40
2022-10-02T17:06:28.430Z,6.68
2022-10-02T17:09:05.715Z,5.63
2022-10-02T17:11:43.333Z,7.57
2022-10-02T17:14:14.642Z,5.43
2022-10-02T17:17:31.986Z,6.55
2022-10-02T17:20:01.217Z,5.40
2022-10-02T17:22:41.201Z,5.35
2022-10-02T17:25:27.019Z,6.25
2022-10-02T17:28:04.069Z,9.73
2022-10-02T17:30:52.569Z,7.00
2022-10-02T17:33:26.967Z,5.38
2022-10-02T17:36:06.112Z,7.57
2022-10-02T17:39:04.258Z,6.95
2022-10-02T17:41:57.528Z,7.50
2022-10-02T17:44:59.062Z,26.25
2022-10-02T17:47:34.328Z,27.98
2022-10-02T17:50:29.794Z,17.60
2022-10-02T17:53:32.485Z,22.98
2022-10-02T17:56:28.589Z,27.33
2022-10-02T17:59:07.101Z,17.95
2022-10-02T18:01:46.704Z,17.17
2022-10-02T18:04:31.319Z,20.50
2022-10-02T18:07:06.868Z,14.07
2022-10-02T18:09:51.422Z,7.03
2022-10-02T18:12:43.153Z,13.77
2022-10-02T18:15:40.427Z,11.00
2022-10-02T18:18:21.223Z,9.40
2022-10-02T18:20:57.359Z,6.72
2022-10-02T18:24:07.641Z,5.18
2022-10-02T18:26:53.274Z,5.07
2022-10-02T18:29:34.891Z,8.32
2022-10-02T18:32:22.548Z,7.63
2022-10-02T18:35:09.109Z,3.65
2022-10-02T18:37:47.731Z,6.47
2022-10-02T18:40:22.943Z,13.77
2022-10-02T18:43:23.216Z,16.02
2022-10-02T18:46:11.392Z,10.13
2022-10-02T18:48:58.721Z,12.48
2022-10-02T18:51:38.748Z,4.97
2022-10-02T18:54:30.023Z,7.88
2022-10-02T18:57:02.485Z,5.20
2022-10-02T18:59:47.738Z,6.28
2022-10-02T19:02:40.006Z,4.93
2022-10-02T19:05:33.437Z,8.15
2022-10-02T19:08:06.062Z,8.70
2022-10-02T19:10:32.442Z,13.55
2022-10-02T19:13:21.940Z,13.35
2022-10-02T19:15:52.600Z,30.58
2022-10-02T19:18:21.170Z,26.58
2022-10-02T19:20:54.613Z,16.65
2022-10-02T19:23:41.495Z,19.83
2022-10-02T19:26:17.150Z,13.10
2022-10-02T19:28:48.338Z,12.27
2022-10-02T19:31:22.810Z,5.28
2022-10-02T19:33:54.388Z,10.15
2022-10-02T19:36:24.216Z,12.93
2022-10-02T19:38:58.832Z,9.70
2022-10-02T19:41:26.179Z,9.98
2022-10-02T19:44:28.800Z,15.30
2022-10-02T19:46:58.681Z,12.32
2022-10-02T19:49:30.245Z,16.33
2022-10-02T19:51:57.668Z,14.30
2022-10-02T19:54:30.594Z,14.98
2022-10-02T19:57:04.407Z,9.75
2022-10-02T19:59:41.743Z,9.60
2022-10-02T20:02:21.894Z,12.10
2022-10-02T20:04:50.587Z,10.10
2022-10-02T20:07:20.375Z,10.23
2022-10-02T20:09:55.513Z,13.43
2022-10-02T20:12:27.229Z,10.18
2022-10-02T20:15:10.293Z,12.27
2022-10-02T20:17:37.596Z,6.68
2022-10-02T20:20:12.007Z,8.02
2022-10-02T20:22:45.584Z,7.50
2022-10-02T20:25:44.876Z,7.95
2022-10-02T20:28:17.573Z,9.18
2022-10-02T20:31:06.135Z,8.77
2022-10-02T20:33:40.389Z,8.25
2022-10-02T20:36:14.353Z,11.13
2022-10-02T20:38:57.532Z,6.43
2022-10-02T20:41:29.862Z,10.80
2022-10-02T20:44:02.375Z,11.00
2022-10-02T20:46:47.605Z,10.13
2022-10-02T20:49:52.767Z,9.23
2022-10-02T20:55:26.517Z,12.02
2022-10-02T20:58:02.160Z,15.90
2022-10-02T21:00:47.509Z,16.13
2022-10-02T21:03:30.890Z,18.17
2022-10-02T21:06:07.278Z,13.98
2022-10-02T21:09:00.320Z,10.32
2022-10-02T21:11:45.477Z,11.52
2022-10-02T21:14:53.189Z,12.45
2022-10-02T21:17:38.655Z,13.52
2022-10-02T21:20:07.768Z,10.35
2022-10-02T21:23:11.832Z,11.85
2022-10-02T21:25:59.567Z,10.18
2022-10-02T21:28:51.078Z,11.30
2022-10-02T21:31:31.339Z,13.57
2022-10-02T21:34:18.557Z,11.05
2022-10-02T21:36:58.692Z,10.80
2022-10-02T21:40:03.057Z,10.63
2022-10-02T21:43:02.815Z,12.15
2022-10-02T21:45:34.949Z,14.32
2022-10-02T21:48:20.227Z,12.20
2022-10-02T21:51:38.184Z,12.90
2022-10-02T21:54:25.672Z,12.57
2022-10-02T21:57:16.236Z,12.32
2022-10-02T22:00:07.741Z,15.10
2022-10-02T22:02:53.884Z,16.63
2022-10-02T22:05:42.516Z,17.67
2022-10-02T22:08:09.228Z,15.18
2022-10-02T22:10:56.664Z,19.70
2022-10-02T22:13:29.440Z,16.90
2022-10-02T22:16:28.449Z,18.00
2022-10-02T22:19:02.860Z,24.67
2022-10-02T22:21:42.533Z,26.10
2022-10-02T22:24:32.755Z,29.27
2022-10-02T22:27:02.069Z,25.92
2022-10-02T22:29:58.910Z,35.70
2022-10-02T22:32:53.366Z,65.82
2022-10-02T22:36:00.726Z,117.88
2022-10-02T22:38:35.084Z,101.43
2022-10-02T22:41:08.402Z,151.13
2022-10-02T22:43:46.845Z,192.73
2022-10-02T22:46:44.249Z,107.07
2022-10-02T22:49:44.668Z,142.52
2022-10-02T22:52:24.249Z,142.57
2022-10-02T22:54:59.849Z,65.65
2022-10-02T22:57:41.502Z,77.82
2022-10-02T23:00:33.917Z,54.60
2022-10-02T23:03:15.317Z,41.97
2022-10-02T23:05:51.878Z,166.18
2022-10-02T23:08:32.025Z,54.67
2022-10-02T23:11:08.094Z,35.55
2022-10-02T23:13:44.875Z,59.63
2022-10-02T23:16:42.690Z,26.75
2022-10-02T23:19:15.542Z,46.15
2022-10-02T23:21:47.797Z,83.25
2022-10-02T23:24:38.529Z,79.85
2022-10-02T23:27:11.915Z,125.68
2022-10-02T23:29:45.386Z,62.90
2022-10-02T23:32:24.310Z,59.15
2022-10-02T23:34:59.769Z,68.60
2022-10-02T23:37:37.699Z,77.82
2022-10-02T23:40:16.286Z,39.42
2022-10-02T23:43:03.057Z,55.85
2022-10-02T23:45:42.642Z,67.88
2022-10-02T23:48:14.183Z,38.67
2022-10-02T23:51:02.574Z,225.10
2022-10-02T23:53:40.170Z,66.28
2022-10-02T23:56:25.746Z,90.35
2022-10-02T23:59:19.899Z,40.55
